createdAt,value
2023-04-03T00:02:29.534Z,99830.25
2023-04-03T00:06:20.693Z,99830.73
2023-04-03T00:10:17.895Z,99826.32
2023-04-03T00:14:18.860Z,99827.04
2023-04-03T00:18:16.824Z,99825.66
2023-04-03T00:22:17.784Z,99824.22
2023-04-03T00:26:19.529Z,99822.90
2023-04-03T00:30:21.819Z,99820.68
2023-04-03T00:34:21.551Z,99818.52
2023-04-03T00:38:23.161Z,99816.96
2023-04-03T00:42:27.793Z,99818.70
2023-04-03T00:46:27.929Z,99814.77
2023-04-03T00:50:20.703Z,99809.30
2023-04-03T00:54:10.076Z,99808.73
2023-04-03T00:57:56.420Z,99807.17
2023-04-03T01:01:45.136Z,99802.80
2023-04-03T01:05:32.857Z,99806.75
2023-04-03T01:09:20.213Z,99804.20
2023-04-03T01:13:06.717Z,99800.71
2023-04-03T01:16:53.537Z,99798.83
2023-04-03T01:20:40.513Z,99801.33
2023-04-03T01:24:27.906Z,99796.91
2023-04-03T01:28:20.082Z,99790.48
2023-04-03T01:32:06.692Z,99786.79
2023-04-03T01:35:59.563Z,99785.77
2023-04-03T01:39:52.667Z,99789.02
2023-04-03T01:43:53.535Z,99792.10
2023-04-03T01:47:54.919Z,99792.36
2023-04-03T01:51:39.961Z,99792.83
2023-04-03T01:55:39.891Z,99797.39
2023-04-03T01:59:43.011Z,99793.79
2023-04-03T02:03:45.904Z,99795.92
2023-04-03T02:07:46.178Z,99789.63
2023-04-03T02:11:47.138Z,99785.42
2023-04-03T02:15:54.616Z,99784.88
2023-04-03T02:19:49.023Z,99782.46
2023-04-03T02:23:41.270Z,99783.95
2023-04-03T02:27:28.364Z,99783.30
2023-04-03T02:31:15.036Z,99780.55
2023-04-03T02:35:02.654Z,99779.58
2023-04-03T02:38:50.477Z,99777.30
2023-04-03T02:42:40.076Z,99778.96
2023-04-03T02:46:27.054Z,99779.48
2023-04-03T02:50:13.734Z,99780.27
2023-04-03T02:54:01.731Z,99780.80
2023-04-03T02:57:50.542Z,99778.48
2023-04-03T03:01:36.876Z,99780.66
2023-04-03T03:05:23.999Z,99779.64
2023-04-03T03:09:11.362Z,99776.77
2023-04-03T03:12:59.412Z,99777.50
2023-04-03T03:16:47.794Z,99776.70
2023-04-03T03:20:34.540Z,99775.04
2023-04-03T03:24:21.396Z,99775.23
2023-04-03T03:28:10.666Z,99778.58
2023-04-03T03:32:03.722Z,99777.52
2023-04-03T03:35:58.668Z,99776.82
2023-04-03T03:40:05.162Z,99782.98
2023-04-03T03:44:03.524Z,99780.29
2023-04-03T03:48:07.068Z,99778.33
2023-04-03T03:52:09.221Z,99781.55
2023-04-03T03:56:10.075Z,99782.51
2023-04-03T04:00:11.113Z,99785.54
2023-04-03T04:04:21.582Z,99788.00
2023-04-03T04:08:26.409Z,99787.15
2023-04-03T04:12:27.139Z,99788.86
2023-04-03T04:16:30.154Z,99787.92
2023-04-03T04:20:35.804Z,99789.33
2023-04-03T04:24:34.816Z,99788.42
2023-04-03T04:28:38.431Z,99792.37
2023-04-03T04:32:36.391Z,99790.46
2023-04-03T04:36:47.754Z,99793.80
2023-04-03T04:40:57.016Z,99794.92
2023-04-03T04:44:56.166Z,99793.84
2023-04-03T04:49:01.319Z,99797.00
2023-04-03T04:53:03.198Z,99795.55
2023-04-03T04:57:06.329Z,99799.73
2023-04-03T05:01:06.219Z,99795.85
2023-04-03T05:05:10.499Z,99798.64
2023-04-03T05:09:13.147Z,99794.54
2023-04-03T05:13:17.821Z,99799.16
2023-04-03T05:17:18.206Z,99796.03
2023-04-03T05:21:26.059Z,99793.13
2023-04-03T05:25:33.580Z,99792.50
2023-04-03T05:29:36.983Z,99791.33
2023-04-03T05:33:36.280Z,99796.86
2023-04-03T05:37:37.163Z,99799.52
2023-04-03T05:41:40.757Z,99801.62
2023-04-03T05:45:44.710Z,99803.95
2023-04-03T05:49:48.868Z,99797.92
2023-04-03T05:53:52.552Z,99801.70
2023-04-03T05:57:57.119Z,99807.02
2023-04-03T06:01:57.212Z,99809.02
2023-04-03T06:06:01.324Z,99812.23
2023-04-03T06:10:01.465Z,99814.36
2023-04-03T06:14:06.460Z,99822.52
2023-04-03T06:18:11.381Z,99822.42
2023-04-03T06:22:14.860Z,99821.90
2023-04-03T06:26:14.400Z,99820.16
2023-04-03T06:30:17.542Z,99817.43
2023-04-03T06:34:16.869Z,99819.73
2023-04-03T06:38:20.515Z,99817.58
2023-04-03T06:42:20.389Z,99819.59
2023-04-03T06:46:27.573Z,99820.95
2023-04-03T06:50:32.856Z,99824.17
2023-04-03T06:54:36.102Z,99826.40
2023-04-03T06:58:32.745Z,99830.93
2023-04-03T07:02:33.756Z,99828.20
2023-04-03T07:06:31.951Z,99832.67
2023-04-03T07:10:33.535Z,99837.34
2023-04-03T07:14:33.911Z,99842.97
2023-04-03T07:18:35.670Z,99841.17
2023-04-03T07:22:33.976Z,99838.49
2023-04-03T07:26:34.569Z,99843.34
2023-04-03T07:30:31.675Z,99846.77
2023-04-03T07:34:32.693Z,99847.79
2023-04-03T07:38:30.123Z,99848.56
2023-04-03T07:42:30.541Z,99851.16
2023-04-03T07:46:28.226Z,99850.92
2023-04-03T07:50:31.080Z,99855.92
2023-04-03T07:54:31.769Z,99857.59
2023-04-03T07:58:32.469Z,99854.73
2023-04-03T08:02:29.586Z,99857.06
2023-04-03T08:06:44.969Z,99858.16
2023-04-03T08:10:44.502Z,99857.55
2023-04-03T08:14:46.744Z,99860.98
2023-04-03T08:18:44.489Z,99866.99
2023-04-03T08:22:45.300Z,99870.78
2023-04-03T08:26:41.598Z,99875.04
2023-04-03T08:30:45.167Z,99876.48
2023-04-03T08:34:41.848Z,99881.65
2023-04-03T08:38:44.678Z,99878.80
2023-04-03T08:42:42.634Z,99884.10
2023-04-03T08:46:44.516Z,99888.56
2023-04-03T08:50:42.767Z,99895.16
2023-04-03T08:54:43.391Z,99896.53
2023-04-03T08:58:39.591Z,99898.27
2023-04-03T09:02:39.845Z,99893.26
2023-04-03T09:06:37.704Z,99895.23
2023-04-03T09:10:39.345Z,99901.15
2023-04-03T09:14:41.488Z,99906.47
2023-04-03T09:18:43.152Z,99905.44
2023-04-03T09:22:45.708Z,99905.39
2023-04-03T09:26:50.688Z,99912.99
2023-04-03T09:30:42.943Z,99917.64
2023-04-03T09:34:36.621Z,99922.02
2023-04-03T09:38:32.680Z,99922.31
2023-04-03T09:42:33.294Z,99925.95
2023-04-03T09:46:31.833Z,99923.79
2023-04-03T09:50:32.261Z,99927.27
2023-04-03T09:54:28.843Z,99936.75
2023-04-03T09:58:36.136Z,99947.75
2023-04-03T10:02:29.115Z,99952.95
2023-04-03T10:06:15.916Z,99951.93
2023-04-03T10:10:02.936Z,99958.16
2023-04-03T10:13:56.240Z,99959.23
2023-04-03T10:17:48.182Z,99962.65
2023-04-03T10:21:40.889Z,99965.04
2023-04-03T10:25:34.251Z,99970.29
2023-04-03T10:29:35.260Z,99973.30
2023-04-03T10:33:31.750Z,99980.39
2023-04-03T10:37:33.965Z,99983.94
2023-04-03T10:41:30.672Z,99989.29
2023-04-03T10:45:34.770Z,99993.85
2023-04-03T10:49:30.381Z,99996.79
2023-04-03T10:53:26.864Z,99998.98
2023-04-03T10:57:19.332Z,100000.02
2023-04-03T11:01:11.826Z,100002.13
2023-04-03T11:05:10.917Z,100004.80
2023-04-03T11:09:12.218Z,100003.45
2023-04-03T11:13:09.121Z,100009.16
2023-04-03T11:17:06.960Z,100013.70
2023-04-03T11:20:59.810Z,100015.36
2023-04-03T11:24:57.155Z,100016.15
2023-04-03T11:28:52.424Z,100021.84
2023-04-03T11:32:38.818Z,100022.48
2023-04-03T11:36:28.202Z,100029.23
2023-04-03T11:40:17.824Z,100028.19
2023-04-03T11:44:15.961Z,100037.52
2023-04-03T11:48:23.279Z,100042.19
2023-04-03T11:52:26.811Z,100039.70
2023-04-03T11:56:20.063Z,100042.65
2023-04-03T12:00:20.150Z,100044.45
2023-04-03T12:04:13.935Z,100052.45
2023-04-03T12:08:14.895Z,100054.67
2023-04-03T12:12:12.335Z,100053.45
2023-04-03T12:15:58.586Z,100057.31
2023-04-03T12:19:48.287Z,100059.33
2023-04-03T12:23:41.596Z,100060.42
2023-04-03T12:27:27.983Z,100059.98
2023-04-03T12:31:21.043Z,100057.42
2023-04-03T12:35:23.985Z,100055.40
2023-04-03T12:39:27.770Z,100051.39
2023-04-03T12:43:31.368Z,100052.63
2023-04-03T12:47:30.175Z,100056.66
2023-04-03T12:51:34.009Z,100055.27
2023-04-03T12:55:36.471Z,100057.77
2023-04-03T12:59:32.705Z,100058.13
2023-04-03T13:03:31.568Z,100058.31
2023-04-03T13:07:32.831Z,100063.15
2023-04-03T13:11:35.474Z,100066.70
2023-04-03T13:15:35.128Z,100070.02
2023-04-03T13:19:38.107Z,100074.55
2023-04-03T13:23:38.235Z,100080.58
2023-04-03T13:27:40.931Z,100084.54
2023-04-03T13:31:39.095Z,100088.66
2023-04-03T13:35:41.527Z,100093.15
2023-04-03T13:39:48.435Z,100085.88
2023-04-03T13:43:53.756Z,100090.27
2023-04-03T13:47:57.035Z,100095.48
2023-04-03T13:52:07.487Z,100099.66
2023-04-03T13:56:08.225Z,100104.29
2023-04-03T14:00:10.739Z,100108.52
2023-04-03T14:04:23.022Z,100110.67
2023-04-03T14:08:36.069Z,100117.50
2023-04-03T14:12:43.227Z,100118.50
2023-04-03T14:16:49.635Z,100121.39
2023-04-03T14:20:50.186Z,100125.66
2023-04-03T14:24:52.962Z,100133.08
2023-04-03T14:28:51.060Z,100137.23
2023-04-03T14:32:54.157Z,100143.27
2023-04-03T14:36:52.173Z,100143.79
2023-04-03T14:40:57.125Z,100144.38
2023-04-03T14:44:59.016Z,100148.15
2023-04-03T14:49:06.043Z,100152.59
2023-04-03T14:53:11.227Z,100158.87
2023-04-03T14:57:13.996Z,100159.48
2023-04-03T15:01:13.188Z,100163.59
2023-04-03T15:05:15.631Z,100166.51
2023-04-03T15:09:15.283Z,100173.31
2023-04-03T15:13:19.227Z,100179.30
2023-04-03T15:17:19.341Z,100178.89
2023-04-03T15:21:22.170Z,100185.73
2023-04-03T15:25:23.449Z,100187.70
2023-04-03T15:29:27.252Z,100190.77
2023-04-03T15:33:27.236Z,100186.96
2023-04-03T15:37:30.117Z,100188.10
2023-04-03T15:41:29.236Z,100193.57
2023-04-03T15:45:31.941Z,100195.70
2023-04-03T15:49:32.123Z,100197.85
2023-04-03T15:53:34.673Z,100201.89
2023-04-03T16:01:40.902Z,100204.26
2023-04-03T16:05:40.271Z,100208.23
2023-04-03T16:09:44.271Z,100216.73
2023-04-03T16:13:43.377Z,100212.83
2023-04-03T16:17:47.338Z,100212.98
2023-04-03T16:21:52.360Z,100216.55
2023-04-03T16:25:55.282Z,100226.84
2023-04-03T16:29:55.285Z,100235.08
2023-04-03T16:33:58.798Z,100236.16
2023-04-03T16:37:59.123Z,100237.60
2023-04-03T16:42:03.302Z,100240.67
2023-04-03T16:46:04.389Z,100247.52
2023-04-03T16:50:04.947Z,100253.84
2023-04-03T16:53:58.812Z,100259.77
2023-04-03T16:57:46.266Z,100267.48
2023-04-03T17:01:32.537Z,100273.08
2023-04-03T17:05:18.987Z,100283.31
2023-04-03T17:09:05.568Z,100292.10
2023-04-03T17:12:51.780Z,100299.40
2023-04-03T17:16:44.570Z,100309.01
2023-04-03T17:20:42.284Z,100318.31
2023-04-03T17:24:43.346Z,100315.27
2023-04-03T17:28:40.481Z,100312.26
2023-04-03T17:32:41.298Z,100317.70
2023-04-03T17:36:38.779Z,100326.13
2023-04-03T17:40:38.930Z,100341.02
2023-04-03T17:44:35.497Z,100351.23
2023-04-03T17:48:37.697Z,100351.38
2023-04-03T17:52:34.581Z,100357.39
2023-04-03T17:56:34.828Z,100363.31
2023-04-03T18:00:31.611Z,100360.45
2023-04-03T18:04:33.801Z,100359.33
2023-04-03T18:08:30.461Z,100366.23
2023-04-03T18:12:31.197Z,100368.36
2023-04-03T18:16:29.189Z,100373.29
2023-04-03T18:20:30.200Z,100382.70
2023-04-03T18:24:27.978Z,100390.60
2023-04-03T18:28:28.837Z,100393.94
2023-04-03T18:32:25.786Z,100394.09
2023-04-03T18:36:26.793Z,100398.74
2023-04-03T18:40:28.794Z,100406.27
2023-04-03T18:44:29.347Z,100412.65
2023-04-03T18:48:26.537Z,100414.84
2023-04-03T18:52:27.410Z,100422.91
2023-04-03T18:56:23.435Z,100426.61
2023-04-03T19:00:30.059Z,100429.92
2023-04-03T19:04:11.522Z,100436.32
2023-04-03T19:08:13.105Z,100436.82
2023-04-03T19:12:13.763Z,100440.10
2023-04-03T19:16:09.427Z,100443.55
2023-04-03T19:20:08.480Z,100443.98
2023-04-03T19:24:09.389Z,100454.83
2023-04-03T19:28:08.146Z,100470.02
2023-04-03T19:32:12.007Z,100476.52
2023-04-03T19:36:10.846Z,100481.63
2023-04-03T19:40:14.034Z,100497.38
2023-04-03T19:44:10.730Z,100507.12
2023-04-03T19:48:07.789Z,100516.14
2023-04-03T19:52:09.105Z,100522.97
2023-04-03T19:56:09.139Z,100528.96
2023-04-03T20:00:05.796Z,100536.39
2023-04-03T20:04:16.600Z,100530.70
2023-04-03T20:08:16.675Z,100528.15
2023-04-03T20:12:15.664Z,100529.35
2023-04-03T20:16:12.057Z,100539.44
2023-04-03T20:20:13.029Z,100546.10
2023-04-03T20:24:12.018Z,100557.44
2023-04-03T20:28:10.053Z,100561.52
2023-04-03T20:32:10.434Z,100550.62
2023-04-03T20:36:06.900Z,100541.05
2023-04-03T20:40:07.048Z,100542.20
2023-04-03T20:44:04.103Z,100539.30
2023-04-03T20:48:04.708Z,100543.30
2023-04-03T20:52:01.863Z,100538.22
2023-04-03T20:56:02.530Z,100538.77
2023-04-03T20:59:45.785Z,100547.27
2023-04-03T21:03:44.887Z,100554.51
2023-04-03T21:07:46.077Z,100554.01
2023-04-03T21:11:42.816Z,100554.81
2023-04-03T21:15:41.128Z,100561.70
2023-04-03T21:19:36.382Z,100568.67
2023-04-03T21:23:36.802Z,100563.77
2023-04-03T21:27:33.884Z,100562.80
2023-04-03T21:31:34.175Z,100560.33
2023-04-03T21:35:30.880Z,100561.01
2023-04-03T21:39:31.471Z,100566.02
2023-04-03T21:43:25.717Z,100572.27
2023-04-03T21:47:31.043Z,100580.23
2023-04-03T21:51:27.683Z,100584.40
2023-04-03T21:55:28.556Z,100584.81
2023-04-03T21:59:32.087Z,100588.09
2023-04-03T22:03:33.003Z,100591.40
2023-04-03T22:07:26.916Z,100590.10
2023-04-03T22:11:25.085Z,100596.08
2023-04-03T22:15:21.828Z,100599.91
2023-04-03T22:19:22.690Z,100605.56
2023-04-03T22:23:18.966Z,100613.15
2023-04-03T22:27:19.533Z,100610.69
2023-04-03T22:31:15.825Z,100618.79
2023-04-03T22:35:14.492Z,100621.91
2023-04-03T22:39:15.658Z,100624.33
2023-04-03T22:43:17.150Z,100626.06
2023-04-03T22:47:15.827Z,100626.13
2023-04-03T22:51:16.202Z,100621.05
2023-04-03T22:55:19.398Z,100624.63
2023-04-03T22:59:18.468Z,100623.23
2023-04-03T23:03:12.743Z,100621.16
2023-04-03T23:07:17.587Z,100622.44
2023-04-03T23:11:13.873Z,100629.50
2023-04-03T23:15:14.793Z,100633.86
2023-04-03T23:19:11.985Z,100636.18
2023-04-03T23:23:13.138Z,100638.65
2023-04-03T23:27:07.071Z,100643.66
2023-04-03T23:31:05.925Z,100640.91
2023-04-03T23:35:02.005Z,100635.69
2023-04-03T23:39:05.625Z,100631.40
2023-04-03T23:43:03.088Z,100626.27
2023-04-03T23:47:03.680Z,100631.05
2023-04-03T23:51:00.130Z,100635.19
2023-04-03T23:54:59.325Z,100637.94
2023-04-03T23:59:00.706Z,100641.64
